Time;durP1;ratioP1;P1;durP2;ratioP2;P2;SDS_P1;SDS_P2;PMS_P1;PMS_P2;Temp;Humidity;BMP_temperature;BMP_pressure;BME280_temperature;BME280_humidity;BME280_pressure;Samples;Min_cycle;Max_cycle;Signal;HPM_P1;HPM_P2
2023/08/02 00:02:15;;;;;;;;;;;;;;;15.21;100.00;100038.81;10461209;28;19924;-66
2023/08/02 00:07:17;;;;;;;;;;;;;;;15.36;100.00;100022.56;10461048;28;19947;-66
2023/08/02 00:12:19;;;;;;;;;;;;;;;15.23;100.00;100015.75;10460791;28;19929;-66
2023/08/02 00:17:21;;;;;;;;;;;;;;;15.14;100.00;100010.47;10460656;28;20011;-67
2023/08/02 00:22:24;;;;;;;;;;;;;;;15.27;100.00;100000.50;10460581;28;19971;-67
2023/08/02 00:27:26;;;;;;;;;;;;;;;15.05;100.00;100007.69;10459906;28;19933;-70
2023/08/02 00:32:28;;;;;;;;;;;;;;;14.94;100.00;100002.53;10460042;28;19925;-69
2023/08/02 00:37:31;;;;;;;;;;;;;;;14.90;100.00;100009.03;10459884;28;19925;-67
2023/08/02 00:42:33;;;;;;;;;;;;;;;14.83;100.00;100002.66;10460081;28;19932;-66
2023/08/02 00:47:35;;;;;;;;;;;;;;;14.89;100.00;100007.38;10459475;28;20368;-67
2023/08/02 00:52:38;;;;;;;;;;;;;;;15.15;100.00;99997.16;10458104;28;20016;-68
2023/08/02 00:57:40;;;;;;;;;;;;;;;15.20;100.00;99996.75;10458749;28;19924;-68
2023/08/02 01:02:42;;;;;;;;;;;;;;;15.24;100.00;99988.41;10457748;28;19925;-66
2023/08/02 01:07:50;;;;;;;;;;;;;;;15.23;100.00;99992.03;10458107;28;19925;-66
2023/08/02 01:12:53;;;;;;;;;;;;;;;15.24;100.00;99983.13;10457353;28;20375;-66
2023/08/02 01:17:55;;;;;;;;;;;;;;;15.27;100.00;99984.69;10458523;28;19925;-67
2023/08/02 01:22:58;;;;;;;;;;;;;;;15.33;100.00;99976.22;10457495;28;20003;-66
2023/08/02 01:28:01;;;;;;;;;;;;;;;15.27;100.00;99986.50;10456550;28;19925;-66
2023/08/02 01:33:04;;;;;;;;;;;;;;;15.22;100.00;99982.44;10457611;28;20355;-67
2023/08/02 01:38:06;;;;;;;;;;;;;;;15.20;100.00;99984.41;10457525;28;19929;-67
2023/08/02 01:43:08;;;;;;;;;;;;;;;15.08;100.00;99979.38;10456195;28;19947;-66
2023/08/02 01:48:11;;;;;;;;;;;;;;;15.39;100.00;99967.72;10456064;28;20023;-66
2023/08/02 01:53:13;;;;;;;;;;;;;;;15.41;100.00;99970.22;10457027;28;19925;-66
2023/08/02 01:58:15;;;;;;;;;;;;;;;15.41;100.00;99960.50;10457107;28;19932;-67
2023/08/02 02:03:17;;;;;;;;;;;;;;;15.75;100.00;99952.19;10456849;28;20287;-66
2023/08/02 02:08:20;;;;;;;;;;;;;;;15.53;100.00;99944.53;10456598;28;20311;-66
2023/08/02 02:13:23;;;;;;;;;;;;;;;15.72;100.00;99930.50;10455438;28;19925;-66
2023/08/02 02:18:25;;;;;;;;;;;;;;;15.68;100.00;99919.38;10456613;28;20394;-66
2023/08/02 02:23:27;;;;;;;;;;;;;;;15.88;100.00;99896.44;10455445;28;19924;-66
2023/08/02 02:28:29;;;;;;;;;;;;;;;15.83;100.00;99905.75;10456377;28;19958;-66
2023/08/02 02:33:32;;;;;;;;;;;;;;;15.65;100.00;99872.19;10456320;28;20034;-67
2023/08/02 02:38:34;;;;;;;;;;;;;;;15.66;100.00;99852.72;10456216;28;19929;-67
2023/08/02 02:43:36;;;;;;;;;;;;;;;15.64;100.00;99846.75;10456104;28;20402;-66
2023/08/02 02:48:38;;;;;;;;;;;;;;;15.70;100.00;99843.56;10456092;28;19960;-66
2023/08/02 02:53:41;;;;;;;;;;;;;;;15.66;100.00;99847.44;10454916;28;19933;-66
2023/08/02 02:58:43;;;;;;;;;;;;;;;15.73;100.00;99831.88;10455772;28;19931;-66
2023/08/02 03:03:45;;;;;;;;;;;;;;;15.55;100.00;99835.28;10455643;28;20007;-66
2023/08/02 03:08:47;;;;;;;;;;;;;;;15.50;100.00;99839.28;10455831;28;19925;-66
2023/08/02 03:13:50;;;;;;;;;;;;;;;15.61;100.00;99810.94;10455561;28;19935;-66
2023/08/02 03:18:54;;;;;;;;;;;;;;;15.57;100.00;99792.91;10459009;28;19925;-66
2023/08/02 03:23:56;;;;;;;;;;;;;;;15.61;100.00;99786.38;10462866;28;19925;-66
2023/08/02 03:28:58;;;;;;;;;;;;;;;15.32;100.00;99768.03;10462465;28;19963;-66
2023/08/02 03:34:01;;;;;;;;;;;;;;;15.32;100.00;99749.56;10462457;28;19999;-66
2023/08/02 03:39:03;;;;;;;;;;;;;;;15.48;100.00;99744.47;10462092;28;20257;-66
2023/08/02 03:44:05;;;;;;;;;;;;;;;15.56;100.00;99744.59;10462159;28;19924;-66
2023/08/02 03:49:07;;;;;;;;;;;;;;;15.72;100.00;99751.88;10461704;28;19924;-66
2023/08/02 03:54:09;;;;;;;;;;;;;;;15.58;100.00;99742.66;10460318;28;20299;-66
2023/08/02 03:59:12;;;;;;;;;;;;;;;15.70;100.00;99747.72;10461527;28;19931;-66
2023/08/02 04:04:14;;;;;;;;;;;;;;;15.81;100.00;99744.91;10461285;28;19925;-66
2023/08/02 04:09:16;;;;;;;;;;;;;;;15.53;100.00;99736.13;10459815;28;19932;-66
2023/08/02 04:14:18;;;;;;;;;;;;;;;15.66;100.00;99712.88;10460714;28;20012;-66
2023/08/02 04:19:21;;;;;;;;;;;;;;;15.79;100.00;99705.47;10460889;28;19925;-66
2023/08/02 04:24:23;;;;;;;;;;;;;;;15.84;100.00;99691.84;10460563;28;19931;-65
2023/08/02 04:29:25;;;;;;;;;;;;;;;15.82;100.00;99685.88;10458887;28;19925;-66
2023/08/02 04:34:28;;;;;;;;;;;;;;;15.71;100.00;99678.16;10460119;28;19925;-66
2023/08/02 04:39:30;;;;;;;;;;;;;;;15.93;100.00;99664.53;10459908;28;19924;-66
2023/08/02 04:44:32;;;;;;;;;;;;;;;16.11;100.00;99648.69;10459773;28;19925;-66
2023/08/02 04:49:35;;;;;;;;;;;;;;;16.12;100.00;99621.34;10458267;28;20253;-66
2023/08/02 04:54:37;;;;;;;;;;;;;;;16.11;100.00;99613.56;10459482;28;19925;-66
2023/08/02 04:59:39;;;;;;;;;;;;;;;16.06;100.00;99594.72;10458993;28;20364;-66
2023/08/02 05:04:41;;;;;;;;;;;;;;;16.15;100.00;99591.97;10458870;28;19931;-66
2023/08/02 05:09:43;;;;;;;;;;;;;;;16.15;100.00;99585.84;10458709;28;19928;-66
2023/08/02 05:14:46;;;;;;;;;;;;;;;15.97;100.00;99578.78;10458508;28;19925;-66
2023/08/02 05:19:48;;;;;;;;;;;;;;;15.87;100.00;99562.22;10458482;28;19931;-66
2023/08/02 05:24:50;;;;;;;;;;;;;;;15.86;100.00;99557.91;10458169;28;19928;-66
2023/08/02 05:29:53;;;;;;;;;;;;;;;15.81;100.00;99554.09;10457660;28;19931;-66
2023/08/02 05:34:55;;;;;;;;;;;;;;;15.92;100.00;99530.91;10457984;28;20007;-66
2023/08/02 05:39:57;;;;;;;;;;;;;;;16.01;100.00;99513.31;10456702;28;19931;-66
2023/08/02 05:45:00;;;;;;;;;;;;;;;16.07;100.00;99506.59;10471780;22;19925;-71
2023/08/02 05:50:02;;;;;;;;;;;;;;;16.05;100.00;99495.34;10457118;28;20382;-72
2023/08/02 05:55:05;;;;;;;;;;;;;;;16.11;100.00;99498.22;10423482;28;19925;-71
2023/08/02 06:00:08;;;;;;;;;;;;;;;15.95;100.00;99482.25;10439596;28;19931;-72
2023/08/02 06:05:10;;;;;;;;;;;;;;;16.07;100.00;99478.41;10439370;28;19956;-72
2023/08/02 06:10:12;;;;;;;;;;;;;;;15.79;100.00;99467.16;10456963;28;19925;-72
2023/08/02 06:15:15;;;;;;;;;;;;;;;15.87;100.00;99464.56;10438964;28;19924;-72
2023/08/02 06:20:17;;;;;;;;;;;;;;;15.75;100.00;99466.63;10456825;28;19924;-70
2023/08/02 06:25:19;;;;;;;;;;;;;;;16.05;100.00;99437.28;10456641;28;19935;-71
2023/08/02 06:30:22;;;;;;;;;;;;;;;15.94;100.00;99415.44;10456331;28;19965;-71
2023/08/02 06:35:24;;;;;;;;;;;;;;;15.61;100.00;99420.47;10456292;28;20287;-72
2023/08/02 06:40:26;;;;;;;;;;;;;;;15.92;100.00;99406.88;10456173;28;19925;-72
2023/08/02 06:45:28;;;;;;;;;;;;;;;15.92;100.00;99379.63;10455977;28;20354;-72
2023/08/02 06:50:35;;;;;;;;;;;;;;;15.75;100.00;99378.69;10456035;28;20012;-72
2023/08/02 06:55:37;;;;;;;;;;;;;;;16.11;100.00;99362.75;10444712;28;20384;-73
2023/08/02 07:00:40;;;;;;;;;;;;;;;16.04;100.00;99353.78;10463639;28;19928;-73
2023/08/02 07:05:42;;;;;;;;;;;;;;;15.97;100.00;99359.72;10463554;28;20451;-73
2023/08/02 07:10:44;;;;;;;;;;;;;;;15.92;100.00;99326.84;10463216;28;20023;-73
2023/08/02 07:15:46;;;;;;;;;;;;;;;15.99;100.00;99312.03;10463252;28;19931;-73
2023/08/02 07:20:49;;;;;;;;;;;;;;;15.82;100.00;99303.22;10462879;28;20008;-73
2023/08/02 07:25:51;;;;;;;;;;;;;;;15.97;100.00;99277.06;10462893;28;20308;-73
2023/08/02 07:31:05;;;;;;;;;;;;;;;15.97;100.00;99258.59;10462603;28;19970;-73
2023/08/02 07:36:15;;;;;;;;;;;;;;;15.81;100.00;99264.63;10444795;28;19924;-73
2023/08/02 07:41:17;;;;;;;;;;;;;;;16.07;100.00;99248.72;10427983;28;20003;-73
2023/08/02 07:46:22;;;;;;;;;;;;;;;16.14;100.00;99233.88;10462240;28;19925;-74
2023/08/02 07:51:24;;;;;;;;;;;;;;;16.15;100.00;99227.63;10427733;28;19936;-74
2023/08/02 07:56:27;;;;;;;;;;;;;;;16.27;100.00;99214.94;10461829;28;19925;-74
2023/08/02 08:01:29;;;;;;;;;;;;;;;16.16;100.00;99204.66;10461401;28;20020;-74
2023/08/02 08:06:31;;;;;;;;;;;;;;;16.42;100.00;99198.41;10443226;28;20376;-74
2023/08/02 08:11:33;;;;;;;;;;;;;;;16.30;100.00;99182.06;10443344;28;19964;-74
2023/08/02 08:16:36;;;;;;;;;;;;;;;16.28;100.00;99181.41;10443013;28;20388;-72
2023/08/02 08:21:38;;;;;;;;;;;;;;;16.45;100.00;99169.84;10460582;28;19931;-73
2023/08/02 08:26:41;;;;;;;;;;;;;;;16.37;100.00;99164.56;10460334;28;20379;-73
2023/08/02 08:31:43;;;;;;;;;;;;;;;16.68;100.00;99154.16;10460331;28;19924;-74
2023/08/02 08:36:46;;;;;;;;;;;;;;;16.79;100.00;99126.53;10460003;28;19924;-75
2023/08/02 08:41:48;;;;;;;;;;;;;;;17.02;100.00;99125.84;10459585;28;19932;-74
2023/08/02 08:46:50;;;;;;;;;;;;;;;16.85;100.00;99123.25;10459473;28;19925;-74
2023/08/02 08:51:53;;;;;;;;;;;;;;;16.83;100.00;99127.03;10459281;28;19925;-75
2023/08/02 08:56:55;;;;;;;;;;;;;;;16.89;100.00;99110.53;10441707;28;19924;-75
2023/08/02 09:01:57;;;;;;;;;;;;;;;16.90;100.00;99113.00;10425020;28;20015;-74
2023/08/02 09:07:00;;;;;;;;;;;;;;;17.12;100.00;99107.97;10441137;28;20419;-75
2023/08/02 09:12:02;;;;;;;;;;;;;;;17.12;100.00;99104.50;10458610;28;19960;-75
2023/08/02 09:17:04;;;;;;;;;;;;;;;17.25;100.00;99100.31;10457718;28;19925;-75
2023/08/02 09:22:08;;;;;;;;;;;;;;;17.49;100.00;99081.84;10455012;28;19925;-74
2023/08/02 09:27:14;;;;;;;;;;;;;;;17.54;100.00;99079.50;10441065;28;19929;-73
2023/08/02 09:32:19;;;;;;;;;;;;;;;17.89;100.00;99067.53;10440248;28;20003;-74
2023/08/02 09:37:34;;;;;;;;;;;;;;;18.11;100.00;99060.56;10458020;28;20274;-73
2023/08/02 09:42:37;;;;;;;;;;;;;;;17.89;100.00;99061.41;10438515;28;19925;-74
2023/08/02 09:47:39;;;;;;;;;;;;;;;18.62;100.00;99059.06;10439118;28;19925;-74
2023/08/02 09:52:41;;;;;;;;;;;;;;;18.95;100.00;99043.63;10439559;28;19924;-74
2023/08/02 09:57:45;;;;;;;;;;;;;;;19.76;100.00;99035.53;10456351;28;20023;-74
2023/08/02 10:02:48;;;;;;;;;;;;;;;19.67;100.00;99007.47;10439965;28;19928;-75
2023/08/02 10:07:51;;;;;;;;;;;;;;;19.71;100.00;99007.91;10440007;28;19929;-74
2023/08/02 10:13:16;;;;;;;;;;;;;;;19.65;100.00;98999.69;10437002;28;20380;-73
2023/08/02 10:18:18;;;;;;;;;;;;;;;19.88;100.00;98998.66;10439492;28;19924;-74
2023/08/02 10:23:20;;;;;;;;;;;;;;;20.23;100.00;99009.34;10456772;28;19935;-73
2023/08/02 10:28:22;;;;;;;;;;;;;;;19.82;100.00;99002.09;10442512;28;20372;-74
2023/08/02 10:33:25;;;;;;;;;;;;;;;20.03;100.00;98996.75;10431225;28;19928;-75
2023/08/02 10:38:27;;;;;;;;;;;;;;;20.14;100.00;98986.59;10446858;28;20015;-74
2023/08/02 10:43:30;;;;;;;;;;;;;;;20.09;100.00;98983.69;10446547;28;19947;-75
2023/08/02 10:48:32;;;;;;;;;;;;;;;20.38;100.00;98961.41;10464388;28;19927;-75
2023/08/02 10:53:34;;;;;;;;;;;;;;;22.55;100.00;98907.94;10463931;28;19924;-75
2023/08/02 10:58:47;;;;;;;;;;;;;;;22.93;100.00;98917.78;10446142;28;19925;-74
2023/08/02 11:03:49;;;;;;;;;;;;;;;22.06;100.00;98924.25;10446154;28;19931;-74
2023/08/02 11:08:51;;;;;;;;;;;;;;;21.17;100.00;98945.97;10463468;28;20038;-74
2023/08/02 11:13:54;;;;;;;;;;;;;;;20.98;100.00;98929.75;10445594;28;19925;-75
2023/08/02 11:18:56;;;;;;;;;;;;;;;20.86;100.00;98913.53;10463081;28;20378;-75
2023/08/02 11:23:59;;;;;;;;;;;;;;;20.23;100.00;98881.81;10445170;28;19932;-74
2023/08/02 11:29:06;;;;;;;;;;;;;;;20.34;100.00;98891.03;10462654;28;19924;-74
2023/08/02 11:34:10;;;;;;;;;;;;;;;20.74;100.00;98862.78;10444682;28;20291;-74
2023/08/02 11:39:15;;;;;;;;;;;;;;;20.84;100.00;98878.34;10461890;28;20004;-73
2023/08/02 11:44:18;;;;;;;;;;;;;;;20.63;100.00;98846.59;10444168;28;20303;-74
2023/08/02 11:49:20;;;;;;;;;;;;;;;20.73;100.00;98845.22;10444219;28;20303;-74
2023/08/02 11:54:23;;;;;;;;;;;;;;;20.66;100.00;98881.59;10461889;28;19925;-74
2023/08/02 11:59:25;;;;;;;;;;;;;;;19.30;100.00;98885.47;10461861;28;19931;-73
2023/08/02 12:04:37;;;;;;;;;;;;;;;19.58;100.00;98874.03;10443669;28;19924;-74
2023/08/02 12:09:40;;;;;;;;;;;;;;;19.61;100.00;98872.84;10443661;28;19925;-75
2023/08/02 12:14:42;;;;;;;;;;;;;;;20.07;100.00;98858.22;10443592;28;20011;-74
2023/08/02 12:19:45;;;;;;;;;;;;;;;21.29;100.00;98859.19;10460834;28;20008;-75
2023/08/02 12:25:05;;;;;;;;;;;;;;;23.03;100.00;98863.94;10443081;28;19940;-74
2023/08/02 12:30:09;;;;;;;;;;;;;;;23.92;100.00;98851.28;10442735;28;19925;-74
2023/08/02 12:35:13;;;;;;;;;;;;;;;24.84;100.00;98837.78;10442523;28;19931;-75
2023/08/02 12:40:15;;;;;;;;;;;;;;;24.02;100.00;98827.53;10459930;28;19987;-74
2023/08/02 12:45:18;;;;;;;;;;;;;;;24.95;100.00;98821.97;10459440;28;20380;-75
2023/08/02 12:50:21;;;;;;;;;;;;;;;25.75;95.29;98817.94;10458759;28;19929;-75
2023/08/02 12:55:25;;;;;;;;;;;;;;;26.01;90.20;98802.41;10459449;28;19929;-76
2023/08/02 13:00:27;;;;;;;;;;;;;;;26.48;95.96;98815.69;10441698;28;19947;-75
2023/08/02 13:05:30;;;;;;;;;;;;;;;26.86;90.03;98804.31;10459443;28;19924;-76
2023/08/02 13:10:32;;;;;;;;;;;;;;;26.36;81.54;98812.22;10458900;28;20004;-75
2023/08/02 13:15:34;;;;;;;;;;;;;;;25.00;80.45;98814.09;10459079;28;19931;-74
2023/08/02 13:20:36;;;;;;;;;;;;;;;25.89;80.21;98816.66;10440907;28;20329;-74
2023/08/02 13:25:38;;;;;;;;;;;;;;;25.43;79.26;98804.94;10458607;28;19924;-74
2023/08/02 13:30:41;;;;;;;;;;;;;;;25.11;83.30;98825.84;10458235;28;19929;-75
2023/08/02 13:35:43;;;;;;;;;;;;;;;25.69;82.92;98811.69;10457869;28;19931;-74
2023/08/02 13:40:45;;;;;;;;;;;;;;;26.46;70.39;98813.22;10423869;28;20016;-75
2023/08/02 13:45:48;;;;;;;;;;;;;;;25.89;74.67;98805.94;10457462;28;19924;-74
2023/08/02 13:50:50;;;;;;;;;;;;;;;26.77;70.09;98802.25;10457476;28;19931;-75
2023/08/02 13:55:52;;;;;;;;;;;;;;;25.72;67.34;98807.69;10439680;28;19924;-75
2023/08/02 14:00:54;;;;;;;;;;;;;;;26.32;63.71;98809.19;10439351;28;19925;-75
2023/08/02 14:05:57;;;;;;;;;;;;;;;26.54;66.39;98820.06;10457320;28;19924;-74
2023/08/02 14:10:59;;;;;;;;;;;;;;;25.37;64.68;98808.56;10456854;28;19929;-72
2023/08/02 14:16:01;;;;;;;;;;;;;;;24.33;65.87;98822.25;10456776;28;20423;-74
2023/08/02 14:21:03;;;;;;;;;;;;;;;24.66;65.29;98803.06;10456753;28;19925;-73
2023/08/02 14:26:06;;;;;;;;;;;;;;;24.27;70.27;98813.25;10456849;28;19931;-72
2023/08/02 14:31:08;;;;;;;;;;;;;;;23.65;68.03;98816.81;10456466;28;19925;-73
2023/08/02 14:36:10;;;;;;;;;;;;;;;24.43;71.45;98801.94;10456406;28;19939;-73
2023/08/02 14:41:12;;;;;;;;;;;;;;;24.53;67.85;98819.28;10456424;28;19931;-74
2023/08/02 14:46:15;;;;;;;;;;;;;;;26.17;64.16;98806.22;10455799;28;20008;-74
2023/08/02 14:51:17;;;;;;;;;;;;;;;27.04;60.91;98813.16;10456148;28;19931;-73
2023/08/02 14:56:19;;;;;;;;;;;;;;;25.32;63.00;98816.47;10456179;28;19924;-73
2023/08/02 15:01:21;;;;;;;;;;;;;;;23.33;63.85;98835.63;10456143;28;19929;-74
2023/08/02 15:06:26;;;;;;;;;;;;;;;23.65;67.26;98830.16;10455936;28;19929;-72
2023/08/02 15:11:29;;;;;;;;;;;;;;;22.82;68.12;98832.06;10455645;28;19982;-75
2023/08/02 15:16:31;;;;;;;;;;;;;;;22.91;69.93;98837.94;10461603;28;19972;-70
2023/08/02 15:21:34;;;;;;;;;;;;;;;22.20;67.79;98853.06;10463056;28;20008;-69
2023/08/02 15:26:37;;;;;;;;;;;;;;;22.98;67.17;98849.41;10463126;28;19924;-70
2023/08/02 15:31:40;;;;;;;;;;;;;;;22.45;67.09;98847.88;10445251;28;19931;-71
2023/08/02 15:36:42;;;;;;;;;;;;;;;22.85;67.96;98854.00;10444980;28;20011;-70
2023/08/02 15:41:45;;;;;;;;;;;;;;;22.02;69.49;98858.25;10462128;28;19931;-70
2023/08/02 15:46:47;;;;;;;;;;;;;;;22.51;68.38;98856.06;10462215;28;20012;-70
2023/08/02 15:51:49;;;;;;;;;;;;;;;21.94;71.10;98863.81;10462063;28;19924;-70
2023/08/02 15:56:51;;;;;;;;;;;;;;;21.79;73.96;98877.41;10461889;28;19935;-70
2023/08/02 16:01:54;;;;;;;;;;;;;;;21.01;75.11;98896.59;10461403;28;20003;-69
2023/08/02 16:06:56;;;;;;;;;;;;;;;20.48;75.95;98908.69;10461431;28;19955;-68
2023/08/02 16:11:58;;;;;;;;;;;;;;;20.68;76.19;98905.31;10461113;28;19951;-70
2023/08/02 16:17:01;;;;;;;;;;;;;;;20.89;74.39;98910.50;10443398;28;19924;-71
2023/08/02 16:22:03;;;;;;;;;;;;;;;20.57;75.53;98901.38;10460818;28;19928;-71
2023/08/02 16:27:05;;;;;;;;;;;;;;;21.93;74.16;98907.50;10460334;28;19947;-71
2023/08/02 16:32:07;;;;;;;;;;;;;;;22.30;71.38;98897.97;10460253;28;19924;-71
2023/08/02 16:37:10;;;;;;;;;;;;;;;21.76;70.99;98899.94;10460161;28;20012;-71
2023/08/02 16:42:12;;;;;;;;;;;;;;;21.37;73.70;98903.38;10459690;28;20408;-71
2023/08/02 16:47:14;;;;;;;;;;;;;;;21.41;74.90;98909.97;10459776;28;19925;-70
2023/08/02 16:52:18;;;;;;;;;;;;;;;21.65;70.48;98905.88;10458750;28;21550;-69
2023/08/02 16:57:23;;;;;;;;;;;;;;;21.53;70.61;98897.69;10459293;28;19924;-70
2023/08/02 17:02:25;;;;;;;;;;;;;;;21.86;70.08;98891.53;10459267;28;19952;-70
2023/08/02 17:07:28;;;;;;;;;;;;;;;21.21;71.26;98878.00;10458979;28;19931;-68
2023/08/02 17:12:30;;;;;;;;;;;;;;;21.34;73.02;98876.16;10458715;28;19925;-69
2023/08/02 17:17:32;;;;;;;;;;;;;;;21.01;73.45;98888.63;10458750;28;19929;-70
2023/08/02 17:22:34;;;;;;;;;;;;;;;20.75;73.11;98899.00;10458360;28;20376;-69
2023/08/02 17:27:37;;;;;;;;;;;;;;;20.97;74.15;98890.88;10458185;28;19925;-69
2023/08/02 17:32:39;;;;;;;;;;;;;;;20.89;72.81;98893.72;10440226;28;20434;-70
2023/08/02 17:37:41;;;;;;;;;;;;;;;20.68;73.95;98884.88;10439508;28;20339;-70
2023/08/02 17:42:47;;;;;;;;;;;;;;;20.58;74.38;98892.38;10457335;28;20292;-69
2023/08/02 17:47:49;;;;;;;;;;;;;;;20.50;73.96;98901.34;10439801;28;19932;-70
2023/08/02 17:52:51;;;;;;;;;;;;;;;20.57;73.76;98899.53;10457446;28;19975;-70
2023/08/02 17:57:54;;;;;;;;;;;;;;;20.44;76.66;98896.00;10464455;22;20311;-69
2023/08/02 18:02:56;;;;;;;;;;;;;;;20.35;74.32;98900.66;10456988;28;20031;-69
2023/08/02 18:07:58;;;;;;;;;;;;;;;19.90;74.82;98893.06;10457008;28;19925;-69
2023/08/02 18:13:03;;;;;;;;;;;;;;;19.83;79.25;98889.56;10456830;28;19932;-69
2023/08/02 18:18:06;;;;;;;;;;;;;;;19.71;79.16;98894.56;10456765;28;19931;-69
2023/08/02 18:23:10;;;;;;;;;;;;;;;19.84;78.81;98899.19;10456689;28;19960;-69
2023/08/02 18:28:12;;;;;;;;;;;;;;;19.49;77.99;98894.59;10456559;28;20011;-69
2023/08/02 18:33:14;;;;;;;;;;;;;;;19.23;82.56;98905.81;10456388;28;20287;-69
2023/08/02 18:38:16;;;;;;;;;;;;;;;19.35;82.99;98900.81;10456338;28;19925;-69
2023/08/02 18:43:23;;;;;;;;;;;;;;;19.43;84.39;98907.81;10438674;28;19924;-69
2023/08/02 18:48:25;;;;;;;;;;;;;;;19.15;86.33;98910.41;10457508;28;20283;-69
2023/08/02 18:53:30;;;;;;;;;;;;;;;19.18;86.81;98912.69;10464122;28;19925;-69
2023/08/02 18:58:32;;;;;;;;;;;;;;;18.92;91.93;98924.69;10446160;28;19942;-68
2023/08/02 19:03:35;;;;;;;;;;;;;;;18.64;98.20;98928.00;10464052;28;19925;-68
2023/08/02 19:08:37;;;;;;;;;;;;;;;18.66;100.00;98922.50;10463603;28;20338;-68
2023/08/02 19:13:41;;;;;;;;;;;;;;;18.50;100.00;98919.06;10463653;28;19970;-69
2023/08/02 19:18:43;;;;;;;;;;;;;;;18.41;100.00;98929.94;10445688;28;19929;-69
2023/08/02 19:23:48;;;;;;;;;;;;;;;18.09;100.00;98918.72;10462968;28;19931;-69
2023/08/02 19:28:51;;;;;;;;;;;;;;;18.11;100.00;98928.16;10463042;28;19924;-69
2023/08/02 19:33:53;;;;;;;;;;;;;;;18.23;100.00;98925.88;10462524;28;20341;-69
2023/08/02 19:38:56;;;;;;;;;;;;;;;18.08;100.00;98925.03;10462638;28;19925;-69
2023/08/02 19:43:58;;;;;;;;;;;;;;;18.14;100.00;98926.94;10462275;28;19929;-69
2023/08/02 19:49:01;;;;;;;;;;;;;;;17.93;100.00;98930.31;10444485;28;20367;-69
2023/08/02 19:54:07;;;;;;;;;;;;;;;17.58;100.00;98938.72;10461770;28;19929;-69
2023/08/02 19:59:10;;;;;;;;;;;;;;;17.40;100.00;98928.47;10461175;28;19931;-70
2023/08/02 20:04:12;;;;;;;;;;;;;;;17.60;100.00;98922.66;10443837;28;19947;-69
2023/08/02 20:09:17;;;;;;;;;;;;;;;17.59;100.00;98924.50;10461368;28;19925;-69
2023/08/02 20:14:19;;;;;;;;;;;;;;;17.67;100.00;98925.41;10461278;28;19932;-69
2023/08/02 20:19:24;;;;;;;;;;;;;;;17.64;100.00;98919.47;10443350;28;19951;-69
2023/08/02 20:24:26;;;;;;;;;;;;;;;17.54;100.00;98920.75;10460729;28;19932;-69
2023/08/02 20:29:28;;;;;;;;;;;;;;;17.59;100.00;98907.78;10460459;28;20008;-69
2023/08/02 20:34:30;;;;;;;;;;;;;;;17.41;100.00;98908.91;10442593;28;19939;-69
2023/08/02 20:39:33;;;;;;;;;;;;;;;17.65;100.00;98904.41;10442541;28;20371;-70
2023/08/02 20:44:35;;;;;;;;;;;;;;;17.07;100.00;98904.09;10459896;28;19925;-68
2023/08/02 20:49:37;;;;;;;;;;;;;;;17.43;100.00;98908.75;10459753;28;20287;-69
2023/08/02 20:54:40;;;;;;;;;;;;;;;17.35;100.00;98903.53;10441955;28;19924;-69
2023/08/02 20:59:43;;;;;;;;;;;;;;;17.28;100.00;98906.06;10441372;28;19925;-69
2023/08/02 21:04:45;;;;;;;;;;;;;;;17.36;100.00;98886.66;10459324;28;20016;-68
2023/08/02 21:09:48;;;;;;;;;;;;;;;17.38;100.00;98882.84;10441074;28;20011;-69
2023/08/02 21:14:50;;;;;;;;;;;;;;;17.27;100.00;98883.28;10440043;28;20371;-69
2023/08/02 21:19:52;;;;;;;;;;;;;;;17.26;100.00;98895.69;10458708;28;19931;-70
2023/08/02 21:24:55;;;;;;;;;;;;;;;17.20;100.00;98879.69;10440572;28;20007;-69
2023/08/02 21:29:57;;;;;;;;;;;;;;;17.17;100.00;98869.47;10458299;28;19934;-70
2023/08/02 21:35:00;;;;;;;;;;;;;;;17.22;100.00;98864.47;10457917;28;20418;-69
2023/08/02 21:40:02;;;;;;;;;;;;;;;17.43;100.00;98880.50;10440055;28;20019;-69
2023/08/02 21:45:05;;;;;;;;;;;;;;;17.26;100.00;98863.09;10440115;28;19925;-69
2023/08/02 21:50:07;;;;;;;;;;;;;;;17.25;100.00;98864.94;10457442;28;20363;-70
2023/08/02 21:55:09;;;;;;;;;;;;;;;17.32;100.00;98861.59;10457444;28;19931;-69
2023/08/02 22:00:12;;;;;;;;;;;;;;;17.18;100.00;98847.31;10439341;28;19931;-70
2023/08/02 22:05:20;;;;;;;;;;;;;;;17.05;100.00;98848.72;10439372;28;19925;-69
2023/08/02 22:10:22;;;;;;;;;;;;;;;17.09;100.00;98841.25;10439212;28;20015;-69
2023/08/02 22:15:24;;;;;;;;;;;;;;;17.22;100.00;98835.38;10457011;28;19925;-69
2023/08/02 22:20:27;;;;;;;;;;;;;;;17.14;100.00;98838.91;10456762;28;19925;-69
2023/08/02 22:25:29;;;;;;;;;;;;;;;17.11;100.00;98831.31;10463384;28;19925;-69
2023/08/02 22:30:31;;;;;;;;;;;;;;;17.29;100.00;98823.09;10465247;28;19932;-69
2023/08/02 22:35:34;;;;;;;;;;;;;;;17.19;100.00;98818.03;10465041;28;19931;-69
2023/08/02 22:40:36;;;;;;;;;;;;;;;16.95;100.00;98824.38;10464773;28;19924;-69
2023/08/02 22:45:38;;;;;;;;;;;;;;;17.19;100.00;98822.50;10446784;28;19924;-69
2023/08/02 22:50:41;;;;;;;;;;;;;;;17.07;100.00;98828.22;10464592;28;20447;-69
2023/08/02 22:55:46;;;;;;;;;;;;;;;16.75;100.00;98810.78;10446960;28;19932;-69
2023/08/02 23:00:48;;;;;;;;;;;;;;;17.01;100.00;98817.53;10463774;28;19924;-69
2023/08/02 23:05:50;;;;;;;;;;;;;;;16.97;100.00;98814.44;10463948;28;19931;-69
2023/08/02 23:10:52;;;;;;;;;;;;;;;16.86;100.00;98818.31;10463658;28;19925;-69
2023/08/02 23:15:55;;;;;;;;;;;;;;;16.90;100.00;98808.22;10445595;28;19931;-69
2023/08/02 23:20:57;;;;;;;;;;;;;;;16.80;100.00;98816.34;10463326;28;19929;-68
2023/08/02 23:26:01;;;;;;;;;;;;;;;16.72;100.00;98805.84;10445187;28;19925;-68
2023/08/02 23:31:04;;;;;;;;;;;;;;;16.74;100.00;98803.84;10428811;28;20292;-69
2023/08/02 23:36:06;;;;;;;;;;;;;;;16.51;100.00;98815.22;10461766;28;19929;-69
2023/08/02 23:41:09;;;;;;;;;;;;;;;16.48;100.00;98807.66;10444738;28;20398;-68
2023/08/02 23:46:11;;;;;;;;;;;;;;;16.76;100.00;98809.78;10462153;28;19925;-69
2023/08/02 23:51:14;;;;;;;;;;;;;;;16.67;100.00;98805.53;10462275;28;19978;-69
2023/08/02 23:56:16;;;;;;;;;;;;;;;16.58;100.00;98810.06;10443871;28;20272;-69
